Time;durP1;ratioP1;P1;durP2;ratioP2;P2;SDS_P1;SDS_P2;PMS_P1;PMS_P2;Temp;Humidity;BMP_temperature;BMP_pressure;BME280_temperature;BME280_humidity;BME280_pressure;Samples;Min_cycle;Max_cycle;Signal;HPM_P1;HPM_P2
2021/01/04 00:00:05;;;;;;;11.55;6.80;;;3.20;91.40;;;;;;2086553;28;20028;-80
2021/01/04 00:01:17;;;;;;;11.02;6.75;;;3.20;91.40;;;;;;2086259;28;20041;-81
2021/01/04 00:02:47;;;;;;;12.88;7.47;;;3.20;91.40;;;;;;2085340;28;20361;-81
2021/01/04 00:04:03;;;;;;;12.30;7.18;;;3.20;91.40;;;;;;2096954;28;20048;-80
2021/01/04 00:05:12;;;;;;;11.45;6.25;;;3.20;91.40;;;;;;2091692;28;20040;-80
2021/01/04 00:06:27;;;;;;;10.77;6.93;;;3.20;91.50;;;;;;2088647;28;20047;-81
2021/01/04 00:07:37;;;;;;;10.35;6.45;;;3.20;91.50;;;;;;2082530;28;20026;-80
2021/01/04 00:08:54;;;;;;;9.77;6.90;;;3.20;91.50;;;;;;2082226;28;20034;-80
2021/01/04 00:10:14;;;;;;;11.05;6.72;;;3.20;91.50;;;;;;2082473;28;20044;-80
2021/01/04 00:11:36;;;;;;;12.18;7.05;;;3.20;91.50;;;;;;2081241;28;20037;-80
2021/01/04 00:12:58;;;;;;;10.50;6.50;;;3.20;91.50;;;;;;2081461;28;20030;-80
2021/01/04 00:14:14;;;;;;;10.25;6.57;;;3.20;91.50;;;;;;2088968;28;20021;-81
2021/01/04 00:15:23;;;;;;;10.55;6.47;;;3.20;91.50;;;;;;2088394;28;20033;-80
2021/01/04 00:16:43;;;;;;;12.02;6.68;;;3.20;91.50;;;;;;2088002;28;20056;-81
2021/01/04 00:17:53;;;;;;;11.57;6.75;;;3.20;91.50;;;;;;2081667;28;20021;-80
2021/01/04 00:19:22;;;;;;;10.35;6.60;;;3.20;91.50;;;;;;2083632;28;20270;-80
2021/01/04 00:20:35;;;;;;;11.48;6.90;;;3.20;91.50;;;;;;2082585;28;20033;-80
2021/01/04 00:22:15;;;;;;;10.45;6.32;;;3.20;91.50;;;;;;2081697;28;20037;-80
2021/01/04 00:23:21;;;;;;;10.82;6.72;;;3.20;91.60;;;;;;2081117;28;20048;-81
2021/01/04 00:24:51;;;;;;;10.63;6.75;;;3.20;91.50;;;;;;2088959;28;20049;-81
2021/01/04 00:26:18;;;;;;;9.73;6.22;;;3.20;91.50;;;;;;2084555;28;20510;-81
2021/01/04 00:27:42;;;;;;;12.20;6.95;;;3.20;91.50;;;;;;2089893;28;20386;-81
2021/01/04 00:28:43;;;;;;;11.63;7.05;;;3.20;91.60;;;;;;2086804;28;20034;-80
2021/01/04 00:29:44;;;;;;;11.07;6.57;;;3.20;91.50;;;;;;2088980;28;20079;-80
2021/01/04 00:31:08;;;;;;;9.68;6.20;;;3.20;91.60;;;;;;2083241;28;20087;-80
2021/01/04 00:32:23;;;;;;;10.13;5.97;;;3.30;91.60;;;;;;2087278;28;20029;-80
2021/01/04 00:33:28;;;;;;;12.23;6.90;;;3.20;91.60;;;;;;2079313;28;20026;-80
2021/01/04 00:34:52;;;;;;;9.73;6.00;;;3.20;91.60;;;;;;2083768;28;20025;-80
2021/01/04 00:35:57;;;;;;;11.25;6.97;;;3.30;91.60;;;;;;2085675;28;20025;-81
2021/01/04 00:37:43;;;;;;;11.40;6.70;;;3.30;91.60;;;;;;2102026;28;20153;-81
2021/01/04 00:39:16;;;;;;;11.55;6.50;;;3.30;91.60;;;;;;2084613;28;20049;-80
2021/01/04 00:40:38;;;;;;;10.65;6.75;;;3.30;91.60;;;;;;2092192;28;20060;-81
2021/01/04 00:42:19;;;;;;;9.88;6.13;;;3.30;91.60;;;;;;2090608;28;20127;-80
2021/01/04 00:43:30;;;;;;;12.02;7.20;;;3.30;91.60;;;;;;2082693;28;20040;-79
2021/01/04 00:44:56;;;;;;;11.85;6.65;;;3.30;91.60;;;;;;2091367;28;20454;-80
2021/01/04 00:45:56;;;;;;;11.30;6.75;;;3.30;91.60;;;;;;2096415;28;20131;-80
2021/01/04 00:47:38;;;;;;;11.07;6.90;;;3.30;91.60;;;;;;2087164;28;20026;-80
2021/01/04 00:48:52;;;;;;;11.35;6.65;;;3.30;91.60;;;;;;2100298;28;20040;-80
2021/01/04 00:50:10;;;;;;;9.90;6.15;;;3.30;91.60;;;;;;2097482;28;20426;-81
2021/01/04 00:51:34;;;;;;;11.77;6.53;;;3.30;91.60;;;;;;2087517;28;20124;-80
2021/01/04 00:52:40;;;;;;;10.32;6.13;;;3.30;91.60;;;;;;2090393;28;20491;-81
2021/01/04 00:53:44;;;;;;;10.70;6.72;;;3.30;91.60;;;;;;2094307;28;20094;-80
2021/01/04 00:55:19;;;;;;;10.43;7.18;;;3.30;91.70;;;;;;2102392;28;20024;-80
2021/01/04 00:56:38;;;;;;;8.85;6.07;;;3.30;91.60;;;;;;2095115;28;20465;-80
2021/01/04 00:57:53;;;;;;;10.98;6.35;;;3.30;91.60;;;;;;2092486;28;20032;-81
2021/01/04 00:59:23;;;;;;;10.85;6.60;;;3.30;91.60;;;;;;2091896;28;20071;-81
2021/01/04 01:00:34;;;;;;;10.77;6.40;;;3.30;91.60;;;;;;2091006;28;20030;-81
2021/01/04 01:01:53;;;;;;;11.07;6.90;;;3.30;91.60;;;;;;2083877;28;20064;-80
2021/01/04 01:03:12;;;;;;;11.40;7.05;;;3.30;91.60;;;;;;2084181;28;20079;-80
2021/01/04 01:04:31;;;;;;;11.10;6.53;;;3.30;91.60;;;;;;2090336;28;20107;-81
2021/01/04 01:05:45;;;;;;;9.20;6.15;;;3.30;91.60;;;;;;2091357;28;20398;-81
2021/01/04 01:07:11;;;;;;;11.13;6.55;;;3.30;91.60;;;;;;2090130;28;20048;-81
2021/01/04 01:08:22;;;;;;;8.80;5.53;;;3.30;91.70;;;;;;2089445;28;20025;-81
2021/01/04 01:09:23;;;;;;;10.82;6.80;;;3.30;91.60;;;;;;2090482;28;20036;-81
2021/01/04 01:10:29;;;;;;;11.55;6.53;;;3.30;91.60;;;;;;2087444;28;20084;-81
2021/01/04 01:11:39;;;;;;;11.73;7.07;;;3.30;91.70;;;;;;2083235;28;20041;-81
2021/01/04 01:13:03;;;;;;;11.73;7.00;;;3.30;91.70;;;;;;2086805;28;20061;-81
2021/01/04 01:14:24;;;;;;;10.13;6.13;;;3.30;91.70;;;;;;2091477;28;20021;-81
2021/01/04 01:15:31;;;;;;;10.05;6.13;;;3.40;91.70;;;;;;2093670;28;20495;-81
2021/01/04 01:16:43;;;;;;;10.10;6.53;;;3.30;91.70;;;;;;2094748;28;20047;-81
2021/01/04 01:18:06;;;;;;;10.73;6.80;;;3.40;91.70;;;;;;2094497;28;20047;-80
2021/01/04 01:19:22;;;;;;;9.57;6.80;;;3.40;91.70;;;;;;2090629;28;20028;-80
2021/01/04 01:20:23;;;;;;;10.63;6.95;;;3.30;91.70;;;;;;2085302;28;20472;-81
2021/01/04 01:21:24;;;;;;;11.75;6.90;;;3.40;91.70;;;;;;2088676;28;20116;-80
2021/01/04 01:22:38;;;;;;;10.98;6.68;;;3.30;91.70;;;;;;2086500;28;20029;-81
2021/01/04 01:23:40;;;;;;;10.30;6.75;;;3.30;91.70;;;;;;2077366;28;20046;-81
2021/01/04 01:24:42;;;;;;;10.90;6.78;;;3.40;91.70;;;;;;2089984;28;20111;-80
2021/01/04 01:26:01;;;;;;;12.50;7.05;;;3.30;91.70;;;;;;2089929;28;20021;-80
2021/01/04 01:27:27;;;;;;;11.88;6.80;;;3.30;91.70;;;;;;2089787;28;20056;-81
2021/01/04 01:28:45;;;;;;;11.63;6.63;;;3.40;91.80;;;;;;2087480;28;20079;-80
2021/01/04 01:30:27;;;;;;;10.02;6.45;;;3.30;91.70;;;;;;2089103;28;20215;-81
2021/01/04 01:31:30;;;;;;;9.60;6.07;;;3.30;91.70;;;;;;2078761;28;20491;-80
2021/01/04 01:33:10;;;;;;;9.07;6.18;;;3.30;91.70;;;;;;2084414;28;20027;-81
2021/01/04 01:34:35;;;;;;;11.40;6.70;;;3.40;91.70;;;;;;2083607;28;20025;-80
2021/01/04 01:36:02;;;;;;;11.65;6.95;;;3.30;91.70;;;;;;2083673;28;20049;-81
2021/01/04 01:37:16;;;;;;;11.52;7.40;;;3.30;91.70;;;;;;2081731;28;20080;-80
2021/01/04 01:38:54;;;;;;;10.35;6.90;;;3.30;91.70;;;;;;2089696;28;20116;-81
2021/01/04 01:40:30;;;;;;;11.05;6.35;;;3.30;91.70;;;;;;2083960;28;20053;-81
2021/01/04 01:41:43;;;;;;;11.32;6.70;;;3.30;91.70;;;;;;2069695;28;20050;-80
2021/01/04 01:43:04;;;;;;;8.95;6.25;;;3.30;91.70;;;;;;2087455;28;20059;-81
2021/01/04 01:44:29;;;;;;;9.45;6.10;;;3.30;91.70;;;;;;2089314;28;20091;-80
2021/01/04 01:45:48;;;;;;;9.48;5.93;;;3.30;91.70;;;;;;2082679;28;20083;-81
2021/01/04 01:47:03;;;;;;;10.88;6.18;;;3.30;91.70;;;;;;2082557;28;20120;-80
2021/01/04 01:48:16;;;;;;;10.98;6.53;;;3.30;91.70;;;;;;2081181;28;20033;-80
2021/01/04 01:49:22;;;;;;;11.32;6.82;;;3.30;91.70;;;;;;2087247;28;20052;-80
2021/01/04 01:50:29;;;;;;;11.10;6.55;;;3.30;91.80;;;;;;2087312;28;20022;-81
2021/01/04 01:51:48;;;;;;;10.73;6.75;;;3.30;91.80;;;;;;2087954;28;20033;-81
2021/01/04 01:53:17;;;;;;;9.70;6.47;;;3.30;91.80;;;;;;2083104;28;20076;-80
2021/01/04 01:54:42;;;;;;;10.82;6.97;;;3.20;91.80;;;;;;2087072;28;20034;-81
2021/01/04 01:56:11;;;;;;;10.55;6.57;;;3.30;91.80;;;;;;2082473;28;20116;-81
2021/01/04 01:57:51;;;;;;;10.50;6.65;;;3.20;91.80;;;;;;2085540;28;20052;-80
2021/01/04 01:59:06;;;;;;;11.35;6.55;;;3.20;91.80;;;;;;2082218;28;20384;-80
2021/01/04 02:00:23;;;;;;;9.07;6.35;;;3.20;91.80;;;;;;2097672;28;20063;-81
2021/01/04 02:01:51;;;;;;;8.68;6.00;;;3.20;91.80;;;;;;2097846;28;20531;-80
2021/01/04 02:03:05;;;;;;;9.90;6.45;;;3.20;91.80;;;;;;2086437;28;20021;-81
2021/01/04 02:05:00;;;;;;;11.02;6.78;;;3.20;91.80;;;;;;2081903;28;20017;-80
2021/01/04 02:06:10;;;;;;;10.20;6.15;;;3.20;91.90;;;;;;2084872;28;20605;-80
2021/01/04 02:07:34;;;;;;;8.35;5.93;;;3.20;91.80;;;;;;2087161;28;20025;-80
2021/01/04 02:08:40;;;;;;;9.32;6.13;;;3.20;91.80;;;;;;2084162;28;20044;-80
2021/01/04 02:09:51;;;;;;;9.45;5.90;;;3.20;91.90;;;;;;2085083;28;20031;-80
2021/01/04 02:11:00;;;;;;;9.38;6.20;;;3.20;91.90;;;;;;2088338;28;20108;-80
2021/01/04 02:12:15;;;;;;;9.43;5.88;;;3.20;91.90;;;;;;2086150;28;20063;-80
2021/01/04 02:13:21;;;;;;;9.73;6.68;;;3.20;91.90;;;;;;2086391;28;20041;-80
2021/01/04 02:14:44;;;;;;;10.30;6.80;;;3.20;91.90;;;;;;2082390;28;20072;-80
2021/01/04 02:16:02;;;;;;;9.30;5.97;;;3.20;91.90;;;;;;2082565;28;20036;-80
2021/01/04 02:17:17;;;;;;;8.50;5.88;;;3.20;91.90;;;;;;2087715;28;20055;-80
2021/01/04 02:18:17;;;;;;;9.23;6.15;;;3.20;91.90;;;;;;2087180;28;20083;-80
2021/01/04 02:19:35;;;;;;;8.75;5.65;;;3.20;91.90;;;;;;2081651;28;20514;-80
2021/01/04 02:21:08;;;;;;;10.32;6.70;;;3.20;92.00;;;;;;2082891;28;20156;-81
2021/01/04 02:22:35;;;;;;;8.93;6.32;;;3.20;92.00;;;;;;2088761;28;20124;-81
2021/01/04 02:24:06;;;;;;;8.93;6.10;;;3.20;92.00;;;;;;2082554;28;20622;-80
2021/01/04 02:25:07;;;;;;;8.93;6.25;;;3.20;91.90;;;;;;2084201;28;20435;-81
2021/01/04 02:26:21;;;;;;;9.50;6.13;;;3.20;91.90;;;;;;2083546;28;20029;-80
2021/01/04 02:27:33;;;;;;;9.27;6.25;;;3.20;92.00;;;;;;2081425;28;20025;-80
2021/01/04 02:28:41;;;;;;;10.88;6.47;;;3.20;92.00;;;;;;2088260;28;20024;-80
2021/01/04 02:29:42;;;;;;;9.18;6.32;;;3.10;91.90;;;;;;2085002;28;20544;-80
2021/01/04 02:30:43;;;;;;;8.85;6.20;;;3.10;92.00;;;;;;2084148;28;20399;-80
2021/01/04 02:31:47;;;;;;;10.13;6.20;;;3.20;92.00;;;;;;2081922;28;20036;-80
2021/01/04 02:32:48;;;;;;;9.13;6.00;;;3.20;92.00;;;;;;2088427;28;20491;-80
2021/01/04 02:33:50;;;;;;;8.70;5.70;;;3.20;92.00;;;;;;2089413;28;20032;-80
2021/01/04 02:34:55;;;;;;;9.43;6.18;;;3.20;92.10;;;;;;2087632;28;20074;-80
2021/01/04 02:36:00;;;;;;;9.13;6.15;;;3.20;92.10;;;;;;2081662;28;20021;-80
2021/01/04 02:37:02;;;;;;;8.57;5.63;;;3.10;92.00;;;;;;2082270;28;20025;-81
2021/01/04 02:38:03;;;;;;;7.68;5.38;;;3.20;92.10;;;;;;2081938;28;20091;-80
2021/01/04 02:39:14;;;;;;;7.68;5.32;;;3.10;92.10;;;;;;2090131;28;20438;-80
2021/01/04 02:40:15;;;;;;;;;;;3.20;92.10;;;;;;2093548;28;20032;-81
2021/01/04 02:41:15;;;;;;;7.80;5.60;;;3.10;92.10;;;;;;2083666;28;20383;-81
2021/01/04 02:42:20;;;;;;;7.13;5.00;;;3.10;92.10;;;;;;2098195;28;20025;-81
2021/01/04 02:43:21;;;;;;;7.75;5.45;;;3.20;92.10;;;;;;2093481;28;20058;-81
2021/01/04 02:44:26;;;;;;;8.02;5.65;;;3.20;92.10;;;;;;2097486;28;20509;-80
2021/01/04 02:45:30;;;;;;;7.60;4.90;;;3.20;92.10;;;;;;2096978;28;20368;-80
2021/01/04 02:46:34;;;;;;;9.35;5.90;;;3.10;92.10;;;;;;2083076;28;20025;-80
2021/01/04 02:47:38;;;;;;;7.97;5.68;;;3.10;92.10;;;;;;2089088;28;20068;-80
2021/01/04 02:49:13;;;;;;;8.02;5.50;;;3.10;92.10;;;;;;2081950;28;20029;-81
2021/01/04 02:50:14;;;;;;;8.18;5.45;;;3.10;92.10;;;;;;2085743;28;20024;-80
2021/01/04 02:51:26;;;;;;;8.65;5.80;;;3.10;92.10;;;;;;2075210;28;20039;-80
2021/01/04 02:52:55;;;;;;;7.88;5.38;;;3.10;92.10;;;;;;2076779;28;20654;-81
2021/01/04 02:54:00;;;;;;;8.95;5.25;;;3.10;92.20;;;;;;2083043;28;20475;-80
2021/01/04 02:55:10;;;;;;;8.40;5.63;;;3.10;92.10;;;;;;2085624;28;20045;-80
2021/01/04 02:56:16;;;;;;;8.15;5.68;;;3.10;92.10;;;;;;2083075;28;20095;-80
2021/01/04 02:57:23;;;;;;;7.57;5.55;;;3.10;92.10;;;;;;2085806;28;20439;-81
2021/01/04 02:58:42;;;;;;;7.95;5.53;;;3.00;92.10;;;;;;2085993;28;20088;-80
2021/01/04 02:59:50;;;;;;;7.60;5.20;;;3.10;92.20;;;;;;2088184;28;20055;-81
2021/01/04 03:01:00;;;;;;;7.70;5.10;;;3.00;92.20;;;;;;2084349;28;20099;-80
2021/01/04 03:02:30;;;;;;;7.97;5.28;;;3.00;92.20;;;;;;2092443;28;20040;-81
2021/01/04 03:03:32;;;;;;;8.13;5.47;;;3.10;92.50;;;;;;2086272;28;20499;-81
2021/01/04 03:04:36;;;;;;;7.28;5.05;;;3.00;92.20;;;;;;2083570;28;20136;-80
2021/01/04 03:05:37;;;;;;;7.40;5.28;;;3.00;92.20;;;;;;2088244;28;20025;-80
2021/01/04 03:06:53;;;;;;;8.05;5.35;;;3.00;92.20;;;;;;2086857;28;20033;-80
2021/01/04 03:08:01;;;;;;;8.15;5.45;;;3.00;92.20;;;;;;2083581;28;20032;-80
2021/01/04 03:09:03;;;;;;;7.88;5.43;;;3.00;92.20;;;;;;2086219;28;20103;-81
2021/01/04 03:10:36;;;;;;;8.02;5.65;;;3.00;92.20;;;;;;2085243;28;20083;-80
2021/01/04 03:11:40;;;;;;;7.45;5.28;;;3.00;92.20;;;;;;2082635;28;20056;-80
2021/01/04 03:12:41;;;;;;;8.13;5.38;;;3.00;92.20;;;;;;2081691;28;20025;-81
2021/01/04 03:14:08;;;;;;;7.60;5.40;;;3.00;92.20;;;;;;2089106;28;20124;-80
2021/01/04 03:15:36;;;;;;;7.35;5.35;;;3.00;92.20;;;;;;2085400;28;20056;-81
2021/01/04 03:16:56;;;;;;;7.15;5.13;;;3.00;92.20;;;;;;2082814;28;20548;-80
2021/01/04 03:18:22;;;;;;;7.68;5.28;;;3.00;92.20;;;;;;2083783;28;20039;-80
2021/01/04 03:19:29;;;;;;;6.30;4.65;;;3.00;92.20;;;;;;2088244;28;20097;-80
2021/01/04 03:20:30;;;;;;;8.18;4.95;;;3.00;92.20;;;;;;2082231;28;20057;-80
2021/01/04 03:21:31;;;;;;;7.68;5.03;;;3.00;92.20;;;;;;2097116;28;20503;-80
2021/01/04 03:22:32;;;;;;;8.63;5.00;;;3.00;92.50;;;;;;2101076;28;20431;-80
2021/01/04 03:23:34;;;;;;;6.45;4.55;;;3.00;92.50;;;;;;2096848;28;20049;-80
2021/01/04 03:24:34;;;;;;;6.85;4.93;;;3.00;92.30;;;;;;2087129;28;20059;-80
2021/01/04 03:25:55;;;;;;;7.18;5.00;;;3.00;92.30;;;;;;2082240;28;20026;-80
2021/01/04 03:27:00;;;;;;;;;;;3.00;92.30;;;;;;2082715;28;20093;-80
2021/01/04 03:28:05;;;;;;;8.13;5.10;;;3.00;92.30;;;;;;2088501;28;19904;-81
2021/01/04 03:29:05;;;;;;;8.10;5.20;;;3.00;92.20;;;;;;2086214;28;20502;-80
2021/01/04 03:30:07;;;;;;;7.80;5.35;;;3.00;92.20;;;;;;2087576;28;20041;-80
2021/01/04 03:31:07;;;;;;;9.30;5.40;;;3.00;92.20;;;;;;2085841;28;20033;-81
2021/01/04 03:32:08;;;;;;;6.65;4.93;;;3.00;92.20;;;;;;2083871;28;20052;-80
2021/01/04 03:33:09;;;;;;;8.10;5.22;;;3.00;92.30;;;;;;2084407;28;20116;-80
2021/01/04 03:34:09;;;;;;;7.30;5.63;;;3.00;92.30;;;;;;2088713;28;20025;-80
2021/01/04 03:35:10;;;;;;;8.40;5.70;;;3.00;92.30;;;;;;2083464;28;20039;-80
2021/01/04 03:36:12;;;;;;;7.47;5.28;;;3.00;92.30;;;;;;2073138;28;20413;-81
2021/01/04 03:37:13;;;;;;;7.72;5.40;;;3.00;92.30;;;;;;2076797;28;20017;-80
2021/01/04 03:38:14;;;;;;;8.75;6.13;;;3.00;92.30;;;;;;2097039;28;20048;-80
2021/01/04 03:39:15;;;;;;;7.90;5.95;;;3.00;92.30;;;;;;2096873;28;20559;-81
2021/01/04 03:40:16;;;;;;;7.90;5.75;;;3.00;92.30;;;;;;2083314;28;20180;-80
2021/01/04 03:41:18;;;;;;;8.90;6.13;;;3.00;92.30;;;;;;2085538;28;20448;-80
2021/01/04 03:42:18;;;;;;;8.57;6.13;;;3.00;92.30;;;;;;2085051;28;20062;-81
2021/01/04 03:43:19;;;;;;;8.82;6.18;;;3.00;92.30;;;;;;2088611;28;20066;-81
2021/01/04 03:44:20;;;;;;;7.15;5.30;;;3.00;92.30;;;;;;2096829;28;20024;-81
2021/01/04 03:45:20;;;;;;;7.68;5.63;;;3.00;92.30;;;;;;2085369;28;20300;-80
2021/01/04 03:46:21;;;;;;;7.50;5.30;;;3.00;92.30;;;;;;2072417;28;20018;-80
2021/01/04 03:47:22;;;;;;;7.07;5.32;;;3.10;92.30;;;;;;2072846;28;20038;-81
2021/01/04 03:48:23;;;;;;;7.57;5.13;;;3.00;92.30;;;;;;2080714;28;20052;-81
2021/01/04 03:49:24;;;;;;;7.72;5.32;;;3.00;92.30;;;;;;2081828;28;20103;-81
2021/01/04 03:50:24;;;;;;;6.72;5.18;;;3.00;92.30;;;;;;2077618;28;20037;-80
2021/01/04 03:51:25;;;;;;;7.68;5.30;;;3.00;92.30;;;;;;2085253;28;20449;-81
2021/01/04 03:52:26;;;;;;;7.30;5.47;;;3.10;92.30;;;;;;2081002;28;20029;-81
2021/01/04 03:53:27;;;;;;;7.57;5.45;;;3.00;92.30;;;;;;2088881;28;20044;-81
2021/01/04 03:54:27;;;;;;;6.93;4.85;;;3.10;92.30;;;;;;2085636;28;20025;-81
2021/01/04 03:55:28;;;;;;;8.32;5.30;;;3.00;92.30;;;;;;2087780;28;20083;-80
2021/01/04 03:56:28;;;;;;;7.32;5.63;;;3.00;92.30;;;;;;2083634;28;20064;-80
2021/01/04 03:57:29;;;;;;;8.50;5.68;;;3.00;92.30;;;;;;2080747;28;20022;-81
2021/01/04 03:58:30;;;;;;;6.78;5.22;;;3.00;92.30;;;;;;2085719;28;20028;-81
2021/01/04 03:59:30;;;;;;;6.93;5.18;;;3.00;92.30;;;;;;2083914;28;21118;-80
2021/01/04 04:00:31;;;;;;;7.20;5.18;;;3.00;92.30;;;;;;2093255;28;20028;-81
2021/01/04 04:01:32;;;;;;;7.35;4.95;;;3.00;92.30;;;;;;2091686;28;20108;-81
2021/01/04 04:02:32;;;;;;;6.95;5.00;;;3.00;92.30;;;;;;2080533;28;20116;-81
2021/01/04 04:03:33;;;;;;;6.85;4.75;;;3.00;92.30;;;;;;2088609;28;20461;-81
2021/01/04 04:04:34;;;;;;;6.65;5.20;;;3.00;92.30;;;;;;2093541;28;20119;-80
2021/01/04 04:05:35;;;;;;;6.90;4.65;;;3.00;92.30;;;;;;2085889;28;20033;-80
2021/01/04 04:06:35;;;;;;;7.70;5.30;;;3.00;92.30;;;;;;2087218;28;20090;-80
2021/01/04 04:07:36;;;;;;;6.90;4.63;;;3.00;92.30;;;;;;2082754;28;20384;-80
2021/01/04 04:08:41;;;;;;;6.60;4.88;;;3.00;92.30;;;;;;2086212;28;20105;-80
2021/01/04 04:09:46;;;;;;;6.97;4.40;;;3.00;92.30;;;;;;2094372;28;20024;-80
2021/01/04 04:10:46;;;;;;;6.13;4.20;;;3.00;92.60;;;;;;2081769;28;20391;-80
2021/01/04 04:11:48;;;;;;;6.00;4.25;;;3.00;92.40;;;;;;2080664;28;20021;-80
2021/01/04 04:12:49;;;;;;;6.30;4.68;;;3.00;92.40;;;;;;2073207;28;20025;-79
2021/01/04 04:13:49;;;;;;;6.57;4.45;;;3.00;92.40;;;;;;2072962;28;20030;-80
2021/01/04 04:14:50;;;;;;;5.15;3.58;;;3.00;92.40;;;;;;2080629;28;20053;-80
2021/01/04 04:15:51;;;;;;;6.68;4.32;;;3.00;92.40;;;;;;2071035;28;20440;-80
2021/01/04 04:16:51;;;;;;;5.70;3.67;;;2.90;92.40;;;;;;2073219;28;20030;-80
2021/01/04 04:17:52;;;;;;;7.03;4.53;;;3.00;92.40;;;;;;2080914;28;20492;-80
2021/01/04 04:18:53;;;;;;;6.43;4.60;;;3.00;92.40;;;;;;2080787;28;20084;-80
2021/01/04 04:19:53;;;;;;;6.00;4.22;;;3.00;92.40;;;;;;2089254;28;20930;-80
2021/01/04 04:20:54;;;;;;;6.50;4.38;;;3.00;92.40;;;;;;2096837;28;20036;-80
2021/01/04 04:21:55;;;;;;;6.20;4.25;;;3.00;92.40;;;;;;2095905;28;20594;-80
2021/01/04 04:22:56;;;;;;;6.53;4.20;;;2.90;92.70;;;;;;2096955;28;20174;-80
2021/01/04 04:23:57;;;;;;;6.88;4.88;;;3.00;92.40;;;;;;2103548;28;20039;-81
2021/01/04 04:24:57;;;;;;;6.68;4.88;;;2.90;92.40;;;;;;2091757;28;20115;-80
2021/01/04 04:25:58;;;;;;;7.00;4.88;;;2.90;92.40;;;;;;2093699;28;20047;-81
2021/01/04 04:26:59;;;;;;;8.55;4.50;;;2.90;92.40;;;;;;2089151;28;20108;-81
2021/01/04 04:27:59;;;;;;;7.03;4.47;;;3.00;92.40;;;;;;2084224;28;20467;-80
2021/01/04 04:29:00;;;;;;;6.47;4.50;;;2.90;92.40;;;;;;2085546;28;20040;-80
2021/01/04 04:30:03;;;;;;;6.28;4.55;;;2.90;92.40;;;;;;2081223;28;20059;-80
2021/01/04 04:31:03;;;;;;;6.18;4.20;;;2.90;92.40;;;;;;2086768;28;20423;-80
2021/01/04 04:32:04;;;;;;;6.50;4.35;;;2.90;92.40;;;;;;2088438;28;20029;-80
2021/01/04 04:33:05;;;;;;;6.22;4.20;;;2.90;92.50;;;;;;2088476;28;20056;-80
2021/01/04 04:34:06;;;;;;;7.00;4.47;;;2.90;92.50;;;;;;2081957;28;20105;-80
2021/01/04 04:35:09;;;;;;;6.22;4.20;;;2.90;92.50;;;;;;2088283;28;20029;-80
2021/01/04 04:36:15;;;;;;;6.22;4.30;;;3.00;92.50;;;;;;2081677;28;20065;-80
2021/01/04 04:37:16;;;;;;;6.25;3.90;;;2.90;92.50;;;;;;2089170;28;20040;-80
2021/01/04 04:38:16;;;;;;;6.47;4.30;;;2.90;92.50;;;;;;2081647;28;20039;-80
2021/01/04 04:39:17;;;;;;;6.55;4.47;;;3.00;92.50;;;;;;2080361;28;20497;-80
2021/01/04 04:40:34;;;;;;;6.70;4.20;;;3.00;92.50;;;;;;2082778;28;20034;-80
2021/01/04 04:41:40;;;;;;;6.68;4.50;;;2.90;92.50;;;;;;2082434;28;20522;-80
2021/01/04 04:42:40;;;;;;;7.00;4.55;;;3.00;92.50;;;;;;2080645;28;20022;-80
2021/01/04 04:43:46;;;;;;;6.47;4.35;;;3.00;92.80;;;;;;2094767;28;20487;-80
2021/01/04 04:45:06;;;;;;;6.07;4.00;;;2.90;92.50;;;;;;2096167;28;20062;-80
2021/01/04 04:46:11;;;;;;;;;;;3.00;92.50;;;;;;2089639;28;20033;-80
2021/01/04 04:47:37;;;;;;;5.55;3.95;;;3.00;92.50;;;;;;2082101;28;19916;-80
2021/01/04 04:48:55;;;;;;;6.88;4.60;;;3.00;92.50;;;;;;2086430;28;20395;-80
2021/01/04 04:50:21;;;;;;;6.78;4.50;;;3.00;92.40;;;;;;2091773;28;20115;-80
2021/01/04 04:51:49;;;;;;;6.30;4.15;;;3.00;92.40;;;;;;2087887;28;20032;-80
2021/01/04 04:53:28;;;;;;;5.72;3.88;;;3.00;92.40;;;;;;2086037;28;20018;-80
2021/01/04 04:54:39;;;;;;;6.32;4.20;;;2.90;92.40;;;;;;2097715;28;20031;-80
2021/01/04 04:56:08;;;;;;;5.50;3.90;;;3.00;92.40;;;;;;2093954;28;20032;-80
2021/01/04 04:57:25;;;;;;;6.95;4.20;;;3.00;92.40;;;;;;2081444;28;20087;-80
2021/01/04 04:58:28;;;;;;;6.78;4.38;;;3.00;92.40;;;;;;2080472;28;20472;-80
2021/01/04 04:59:52;;;;;;;6.90;4.55;;;3.00;92.40;;;;;;2079767;28;20037;-80
2021/01/04 05:01:07;;;;;;;7.40;4.65;;;3.00;92.40;;;;;;2085018;28;20071;-80
2021/01/04 05:02:17;;;;;;;7.80;5.15;;;3.00;92.40;;;;;;2088326;28;20044;-80
2021/01/04 05:03:44;;;;;;;8.90;5.18;;;3.00;92.40;;;;;;2088436;28;20190;-80
2021/01/04 05:04:57;;;;;;;7.18;5.05;;;3.00;92.40;;;;;;2080929;28;20037;-80
2021/01/04 05:06:22;;;;;;;7.18;5.35;;;3.00;92.40;;;;;;2086228;28;20071;-80
2021/01/04 05:07:51;;;;;;;7.65;5.20;;;3.00;92.40;;;;;;2098055;28;20039;-79
2021/01/04 05:09:17;;;;;;;7.82;5.07;;;3.00;92.40;;;;;;2097819;28;20036;-80
2021/01/04 05:10:26;;;;;;;6.93;4.90;;;3.00;92.40;;;;;;2101077;28;20094;-80
2021/01/04 05:11:33;;;;;;;6.63;4.95;;;3.00;92.40;;;;;;2093702;28;20021;-80
2021/01/04 05:13:01;;;;;;;6.85;4.82;;;3.00;92.40;;;;;;2095368;28;20021;-80
2021/01/04 05:14:08;;;;;;;7.78;4.97;;;3.00;92.40;;;;;;2073037;28;20026;-81
2021/01/04 05:15:41;;;;;;;7.28;4.65;;;3.00;92.40;;;;;;2090247;28;20029;-80
2021/01/04 05:17:09;;;;;;;7.00;4.93;;;3.00;92.40;;;;;;2074427;28;20030;-79
2021/01/04 05:18:43;;;;;;;8.02;5.22;;;3.10;92.40;;;;;;2087444;28;20037;-79
2021/01/04 05:20:06;;;;;;;8.93;5.28;;;3.00;92.40;;;;;;2088273;28;20025;-79
2021/01/04 05:21:41;;;;;;;8.38;5.47;;;3.10;92.40;;;;;;2095114;28;20029;-80
2021/01/04 05:23:07;;;;;;;8.10;5.30;;;3.10;92.40;;;;;;2100795;28;20029;-80
2021/01/04 05:24:32;;;;;;;8.90;5.40;;;3.10;92.40;;;;;;2091518;28;20045;-80
2021/01/04 05:25:38;;;;;;;8.98;5.50;;;3.10;92.40;;;;;;2105863;28;20476;-79
2021/01/04 05:26:48;;;;;;;8.32;6.00;;;3.00;92.30;;;;;;2101633;28;20081;-80
2021/01/04 05:28:20;;;;;;;8.23;5.35;;;3.10;92.40;;;;;;2082960;28;20065;-80
2021/01/04 05:29:56;;;;;;;10.38;6.80;;;3.10;92.40;;;;;;2086393;28;20076;-80
2021/01/04 05:31:09;;;;;;;8.23;5.80;;;3.10;92.40;;;;;;2087239;28;20414;-80
2021/01/04 05:32:41;;;;;;;7.68;5.60;;;3.10;92.30;;;;;;2082991;28;20029;-80
2021/01/04 05:34:14;;;;;;;8.48;5.80;;;3.10;92.30;;;;;;2082417;28;20559;-80
2021/01/04 05:35:16;;;;;;;8.50;5.88;;;3.10;92.30;;;;;;2082000;28;20499;-80
2021/01/04 05:36:49;;;;;;;9.02;5.75;;;3.10;92.30;;;;;;2086033;28;20407;-80
2021/01/04 05:38:05;;;;;;;8.88;5.78;;;3.10;92.30;;;;;;2084816;28;20040;-81
2021/01/04 05:39:19;;;;;;;8.85;5.20;;;3.10;92.30;;;;;;2088453;28;20034;-80
2021/01/04 05:40:42;;;;;;;7.75;5.50;;;3.00;92.30;;;;;;2089479;28;20088;-80
2021/01/04 05:41:58;;;;;;;8.30;5.15;;;3.00;92.30;;;;;;2096680;28;20033;-80
2021/01/04 05:43:19;;;;;;;7.35;5.47;;;3.10;92.40;;;;;;2099007;28;20039;-80
2021/01/04 05:44:51;;;;;;;7.80;5.20;;;3.10;92.40;;;;;;2089805;28;20031;-80
2021/01/04 05:46:24;;;;;;;7.70;4.88;;;3.10;92.40;;;;;;2083106;28;20372;-80
2021/01/04 05:47:42;;;;;;;9.07;5.53;;;3.10;92.40;;;;;;2083630;28;20036;-80
2021/01/04 05:49:08;;;;;;;8.57;5.18;;;3.10;92.40;;;;;;2086948;28;20024;-80
2021/01/04 05:50:24;;;;;;;8.57;5.78;;;3.10;92.40;;;;;;2082316;28;20471;-80
2021/01/04 05:51:34;;;;;;;8.52;5.97;;;3.00;92.40;;;;;;2081147;28;20030;-80
2021/01/04 05:52:35;;;;;;;10.33;6.30;;;3.00;92.40;;;;;;2088501;28;20032;-80
2021/01/04 05:53:36;;;;;;;8.85;5.65;;;3.10;92.40;;;;;;2084768;28;20272;-81
2021/01/04 05:54:37;;;;;;;9.15;6.10;;;3.00;92.40;;;;;;2082718;28;20029;-80
2021/01/04 05:55:38;;;;;;;7.90;5.50;;;3.00;92.40;;;;;;2089887;28;20025;-80
2021/01/04 05:56:39;;;;;;;7.30;5.40;;;3.10;92.60;;;;;;2085400;28;20708;-81
2021/01/04 05:57:45;;;;;;;7.78;5.70;;;3.00;92.50;;;;;;2089590;28;20517;-80
2021/01/04 05:58:45;;;;;;;8.65;5.45;;;3.10;92.50;;;;;;2086311;28;20037;-80
2021/01/04 05:59:57;;;;;;;7.65;5.20;;;3.10;92.80;;;;;;2085623;28;20026;-80
2021/01/04 06:01:15;;;;;;;6.88;4.80;;;3.10;92.60;;;;;;2087107;28;20478;-80
2021/01/04 06:02:28;;;;;;;9.20;5.90;;;3.10;92.60;;;;;;2088866;28;20055;-80
2021/01/04 06:03:28;;;;;;;8.57;5.55;;;3.10;92.60;;;;;;2083841;28;20032;-80
2021/01/04 06:04:29;;;;;;;9.05;5.50;;;3.10;92.60;;;;;;2090172;28;20029;-80
2021/01/04 06:05:30;;;;;;;8.30;5.50;;;3.10;92.50;;;;;;2087251;28;20117;-81
2021/01/04 06:06:51;;;;;;;9.50;5.50;;;3.10;92.50;;;;;;2085234;28;20080;-81
2021/01/04 06:07:51;;;;;;;;;;;3.10;92.60;;;;;;2082665;28;20039;-81
2021/01/04 06:09:04;;;;;;;8.93;5.38;;;3.10;92.50;;;;;;2086595;28;19920;-81
2021/01/04 06:10:06;;;;;;;7.25;5.07;;;3.10;92.50;;;;;;2083262;28;20030;-81
2021/01/04 06:11:09;;;;;;;9.35;5.75;;;3.10;92.50;;;;;;2087304;28;20119;-81
2021/01/04 06:12:25;;;;;;;9.63;5.78;;;3.10;92.50;;;;;;2088487;28;20013;-81
2021/01/04 06:13:26;;;;;;;8.82;5.68;;;3.10;92.50;;;;;;2083094;28;20038;-80
2021/01/04 06:14:30;;;;;;;9.32;5.30;;;3.10;92.50;;;;;;2088571;28;20060;-80
2021/01/04 06:15:34;;;;;;;7.97;5.20;;;3.10;92.50;;;;;;2081858;28;20037;-81
2021/01/04 06:16:42;;;;;;;7.95;5.38;;;3.10;92.50;;;;;;2086889;28;20138;-80
2021/01/04 06:17:44;;;;;;;7.70;4.95;;;3.10;92.60;;;;;;2089647;28;20033;-82
2021/01/04 06:18:58;;;;;;;8.07;5.68;;;3.10;92.60;;;;;;2089882;28;20037;-80